Portada
METAR-TAF:

METAR-TAF

Aeroports :

Livingstone, Zàmbia

latitud: 17-49-18S, longitud: 025-49-22E, altitud: 991 m

METAR: manca

Hora: 06:51 (04:51 UTC)

Pronòstic

L'informe es va fer fa 18 hores i 51 minuts, a les 10:00 UTC
Pronòstic vàlid del 24 a les 12 UTC al 25 a les 18 UTC
Vent 10 kt del Est/Sud-Est amb ràfegues de 15 kt
Visibilitat 10 km o més
sense núvols per sota de 1500 mi sense presència de cumulonimbus.
Evolucionant progressivament
l' 24 a les 18 UTC al 24 a les 20 UTC
Vent 10 kt del Est/Nord-Est
Evolucionant progressivament
l' 25 a les 05 UTC al 25 a les 07 UTC
Vent 10 kt del Est amb ràfegues de 20 kt
Evolucionant progressivament
l' 25 a les 08 UTC al 25 a les 10 UTC
Vent 10 kt del Est/Sud-Est
Visibilitat 10 km o més
Núvols disperses a una alçada de 3500 ft

TAF: FLHN 241000Z 2412/2518 11010G15KT CAVOK BECMG 2418/2420 07010KT BECMG 2505/2507 09010G20KT BECMG 2508/2510 12010KT 9999 SCT035

Observacions i pronòstics meteorològics de més de 4000 aeroports (METAR i TAF).

Les estacions disponibles són els punts grocs i vermells al mapa.

Posi el ratolí al punt desitjat per veure el nom de l'estació.

Feu clic per veure les observacions i els pronòstics meteorològics.

Per canviar el mapa: feu clic els botons verds amb una creu de color negre per apropar; al botó verd amb un guió per allunyar la imatge; o en les fletxes verdes per a mapes adjacents.


METAR-TAF: